Time;durP1;ratioP1;P1;durP2;ratioP2;P2;SDS_P1;SDS_P2;PMS_P1;PMS_P2;Temp;Humidity;BMP_temperature;BMP_pressure;BME280_temperature;BME280_humidity;BME280_pressure;Samples;Min_cycle;Max_cycle;Signal;HPM_P1;HPM_P2
2022/12/09 00:00:34;;;;;;;;;;;;;;;21.31;36.06;100651.03;7244288;19;153539;-51
2022/12/09 00:03:00;;;;;;;;;;;;;;;21.32;36.11;100655.50;7246345;19;154633;-52
2022/12/09 00:05:27;;;;;;;;;;;;;;;21.32;35.87;100649.03;7242980;19;152272;-52
2022/12/09 00:07:54;;;;;;;;;;;;;;;21.34;36.23;100652.38;7241937;19;153093;-51
2022/12/09 00:10:21;;;;;;;;;;;;;;;21.34;36.11;100647.59;7242156;19;154182;-52
2022/12/09 00:12:48;;;;;;;;;;;;;;;21.34;35.91;100653.22;7251922;19;153095;-51
2022/12/09 00:15:14;;;;;;;;;;;;;;;21.34;35.79;100652.38;7244480;19;154004;-51
2022/12/09 00:17:41;;;;;;;;;;;;;;;21.33;35.92;100643.13;7244931;19;153126;-52
2022/12/09 00:20:08;;;;;;;;;;;;;;;21.33;36.04;100642.28;7254281;19;153089;-53
2022/12/09 00:22:36;;;;;;;;;;;;;;;21.31;36.09;100634.16;7249808;19;153871;-51
2022/12/09 00:25:03;;;;;;;;;;;;;;;21.32;35.86;100647.06;7253699;19;153259;-53
2022/12/09 00:27:30;;;;;;;;;;;;;;;21.31;35.57;100642.59;7249622;19;153945;-52
2022/12/09 00:29:56;;;;;;;;;;;;;;;21.29;35.84;100636.47;7251846;19;154167;-51
2022/12/09 00:32:30;;;;;;;;;;;;;;;21.29;35.74;100644.91;7250926;19;154712;-52
2022/12/09 00:34:56;;;;;;;;;;;;;;;21.27;35.83;100635.97;7257254;19;153467;-51
2022/12/09 00:37:23;;;;;;;;;;;;;;;21.26;35.37;100637.09;7248006;19;154718;-52
2022/12/09 00:39:50;;;;;;;;;;;;;;;21.24;35.56;100633.81;7252085;19;152820;-51
2022/12/09 00:42:17;;;;;;;;;;;;;;;21.22;35.53;100634.13;7248868;19;153564;-51
2022/12/09 00:44:44;;;;;;;;;;;;;;;21.20;35.62;100624.34;7253587;19;153420;-52
2022/12/09 00:47:10;;;;;;;;;;;;;;;21.19;35.09;100628.31;7250691;19;154895;-53
2022/12/09 00:49:37;;;;;;;;;;;;;;;21.18;35.34;100632.25;7249624;19;153954;-51
2022/12/09 00:52:04;;;;;;;;;;;;;;;21.15;35.03;100628.13;7246459;19;153107;-52
2022/12/09 00:54:30;;;;;;;;;;;;;;;21.16;35.57;100637.38;7248692;19;153787;-51
2022/12/09 00:56:58;;;;;;;;;;;;;;;21.12;35.14;100625.91;7257506;19;153876;-52
2022/12/09 00:59:25;;;;;;;;;;;;;;;21.11;35.50;100627.09;7250295;19;154426;-51
2022/12/09 01:01:51;;;;;;;;;;;;;;;21.10;35.42;100630.19;7248649;19;153037;-51
2022/12/09 01:04:18;;;;;;;;;;;;;;;21.08;35.20;100630.50;7252744;19;153902;-51
2022/12/09 01:06:45;;;;;;;;;;;;;;;21.06;34.94;100623.56;7247017;19;154914;-51
2022/12/09 01:09:12;;;;;;;;;;;;;;;21.05;34.93;100630.31;7249274;19;153241;-52
2022/12/09 01:11:39;;;;;;;;;;;;;;;21.03;35.15;100624.22;7248246;19;155284;-52
2022/12/09 01:14:06;;;;;;;;;;;;;;;21.00;35.50;100625.66;7249780;19;154393;-51
2022/12/09 01:16:33;;;;;;;;;;;;;;;20.97;35.55;100620.69;7254002;19;153973;-56
2022/12/09 01:19:01;;;;;;;;;;;;;;;20.95;35.43;100613.72;7250691;19;153557;-52
2022/12/09 01:21:29;;;;;;;;;;;;;;;20.90;35.46;100617.50;7243733;19;154809;-53
2022/12/09 01:23:55;;;;;;;;;;;;;;;20.87;35.36;100606.91;7251381;19;153227;-51
2022/12/09 01:26:23;;;;;;;;;;;;;;;20.85;35.77;100607.22;7250436;19;153158;-51
2022/12/09 01:28:51;;;;;;;;;;;;;;;20.80;35.49;100598.91;7248075;19;153876;-52
2022/12/09 01:31:20;;;;;;;;;;;;;;;20.77;35.59;100607.97;7248862;19;153944;-52
2022/12/09 01:33:47;;;;;;;;;;;;;;;20.75;35.98;100606.66;7249932;19;153215;-52
2022/12/09 01:36:16;;;;;;;;;;;;;;;20.75;35.70;100606.66;7243568;19;155094;-51
2022/12/09 01:38:44;;;;;;;;;;;;;;;20.73;35.88;100604.16;7253975;19;154522;-52
2022/12/09 01:41:11;;;;;;;;;;;;;;;20.72;35.84;100612.88;7245820;19;155049;-52
2022/12/09 01:43:38;;;;;;;;;;;;;;;20.69;36.11;100596.69;7250936;19;153585;-52
2022/12/09 01:46:05;;;;;;;;;;;;;;;20.66;36.00;100598.16;7247048;19;153628;-52
2022/12/09 01:48:34;;;;;;;;;;;;;;;20.63;35.82;100595.97;7248542;19;154168;-53
2022/12/09 01:51:03;;;;;;;;;;;;;;;20.62;36.02;100587.91;7244939;19;154783;-52
2022/12/09 01:53:32;;;;;;;;;;;;;;;20.61;35.67;100601.09;7247640;19;153961;-51
2022/12/09 01:56:02;;;;;;;;;;;;;;;20.57;35.75;100586.03;7245752;19;154161;-52
2022/12/09 01:58:28;;;;;;;;;;;;;;;20.52;35.57;100588.13;7247822;19;153360;-52
2022/12/09 02:00:55;;;;;;;;;;;;;;;20.49;35.94;100598.00;7262765;19;153344;-51
2022/12/09 02:03:22;;;;;;;;;;;;;;;20.47;35.80;100603.13;7250240;19;152619;-52
2022/12/09 02:05:49;;;;;;;;;;;;;;;20.40;35.75;100605.50;7247924;19;153993;-52
2022/12/09 02:08:17;;;;;;;;;;;;;;;20.38;35.80;100602.22;7248023;19;155162;-52
2022/12/09 02:11:00;;;;;;;;;;;;;;;20.36;35.65;100598.88;7245529;19;153449;-52
2022/12/09 02:13:31;;;;;;;;;;;;;;;20.34;36.09;100598.38;7246937;19;153134;-52
2022/12/09 02:16:00;;;;;;;;;;;;;;;20.31;35.54;100596.19;7247928;19;154268;-51
2022/12/09 02:18:53;;;;;;;;;;;;;;;20.25;35.72;100583.41;7249675;19;154889;-51
2022/12/09 02:21:29;;;;;;;;;;;;;;;20.21;35.90;100596.41;7242258;19;153384;-52
2022/12/09 02:24:02;;;;;;;;;;;;;;;20.19;36.03;100587.47;7252769;19;153479;-52
2022/12/09 02:26:29;;;;;;;;;;;;;;;20.14;35.68;100591.22;7247309;19;153864;-53
2022/12/09 02:29:11;;;;;;;;;;;;;;;20.13;35.77;100589.53;7246070;19;153965;-51
2022/12/09 02:31:46;;;;;;;;;;;;;;;20.08;35.73;100591.66;7247632;19;152286;-50
2022/12/09 02:34:16;;;;;;;;;;;;;;;20.03;36.06;100594.56;7248524;19;154055;-52
2022/12/09 02:37:11;;;;;;;;;;;;;;;19.99;35.76;100592.38;7245297;19;153136;-52
2022/12/09 02:39:45;;;;;;;;;;;;;;;19.97;35.90;100589.06;7246647;19;153862;-52
2022/12/09 02:42:14;;;;;;;;;;;;;;;19.93;35.69;100585.22;7245043;19;154161;-52
2022/12/09 02:44:42;;;;;;;;;;;;;;;19.90;36.16;100587.81;7246311;19;153142;-51
2022/12/09 02:47:12;;;;;;;;;;;;;;;19.84;35.84;100581.50;7255110;19;154032;-51
2022/12/09 02:49:40;;;;;;;;;;;;;;;19.80;36.14;100585.25;7247158;19;153724;-52
2022/12/09 02:52:08;;;;;;;;;;;;;;;19.79;36.21;100587.22;7243831;19;153291;-51
2022/12/09 02:54:36;;;;;;;;;;;;;;;19.75;36.11;100577.78;7246667;19;153059;-52
2022/12/09 02:57:09;;;;;;;;;;;;;;;19.70;36.06;100577.88;7245012;19;154112;-52
2022/12/09 02:59:36;;;;;;;;;;;;;;;19.65;36.54;100580.78;7247001;19;152696;-51
2022/12/09 03:02:12;;;;;;;;;;;;;;;19.60;36.39;100580.03;7244728;19;153696;-52
2022/12/09 03:04:41;;;;;;;;;;;;;;;19.56;36.52;100581.81;7246740;19;153787;-52
2022/12/09 03:07:15;;;;;;;;;;;;;;;19.54;36.52;100577.34;7242558;19;153736;-53
2022/12/09 03:09:45;;;;;;;;;;;;;;;19.51;36.61;100577.97;7252515;19;154440;-52
2022/12/09 03:12:13;;;;;;;;;;;;;;;19.50;36.60;100576.28;7245960;19;153985;-52
2022/12/09 03:14:44;;;;;;;;;;;;;;;19.44;36.42;100574.72;7244183;19;154316;-53
2022/12/09 03:17:21;;;;;;;;;;;;;;;19.42;36.48;100570.56;7244270;19;155779;-52
2022/12/09 03:19:56;;;;;;;;;;;;;;;19.38;36.47;100572.31;7247154;19;153406;-52
2022/12/09 03:22:28;;;;;;;;;;;;;;;19.37;36.75;100571.50;7246145;19;154415;-52
2022/12/09 03:25:15;;;;;;;;;;;;;;;19.31;36.66;100560.69;7243414;19;154133;-52
2022/12/09 03:28:02;;;;;;;;;;;;;;;19.28;36.94;100566.91;7242945;19;153122;-51
2022/12/09 03:30:34;;;;;;;;;;;;;;;19.26;36.92;100572.00;7254738;19;154133;-53
2022/12/09 03:33:02;;;;;;;;;;;;;;;19.21;37.07;100567.34;7245300;19;152842;-52
2022/12/09 03:35:34;;;;;;;;;;;;;;;19.17;36.91;100565.47;7245782;19;152677;-52
2022/12/09 03:38:04;;;;;;;;;;;;;;;19.09;37.09;100564.19;7244433;19;154465;-51
2022/12/09 03:40:31;;;;;;;;;;;;;;;19.10;36.92;100565.84;7245174;19;152236;-53
2022/12/09 03:43:04;;;;;;;;;;;;;;;19.05;37.30;100563.13;7242041;19;154054;-52
2022/12/09 03:45:31;;;;;;;;;;;;;;;19.01;37.10;100568.53;7244539;19;155308;-52
2022/12/09 03:48:00;;;;;;;;;;;;;;;18.98;37.09;100571.94;7243723;19;154662;-51
2022/12/09 03:50:30;;;;;;;;;;;;;;;18.97;37.14;100566.66;7245535;19;155212;-52
2022/12/09 03:53:03;;;;;;;;;;;;;;;18.93;37.27;100565.59;7250619;19;155036;-52
2022/12/09 03:55:30;;;;;;;;;;;;;;;18.91;37.37;100568.69;7252247;19;153877;-52
2022/12/09 03:57:59;;;;;;;;;;;;;;;18.89;37.56;100575.75;7252085;19;155496;-53
2022/12/09 04:00:26;;;;;;;;;;;;;;;18.89;37.41;100575.75;7253594;19;154027;-52
2022/12/09 04:02:53;;;;;;;;;;;;;;;18.86;37.17;100576.34;7251356;19;153106;-51
2022/12/09 04:05:20;;;;;;;;;;;;;;;18.82;37.54;100566.91;7253027;19;154141;-53
2022/12/09 04:07:47;;;;;;;;;;;;;;;18.76;37.84;100566.16;7247953;19;153278;-52
2022/12/09 04:10:14;;;;;;;;;;;;;;;18.75;37.56;100558.91;7250758;19;152991;-52
2022/12/09 04:12:40;;;;;;;;;;;;;;;18.73;37.74;100566.78;7247831;19;154469;-52
2022/12/09 04:15:08;;;;;;;;;;;;;;;18.70;37.73;100570.19;7258403;19;154724;-52
2022/12/09 04:17:35;;;;;;;;;;;;;;;18.67;37.71;100574.41;7249124;19;152575;-52
2022/12/09 04:20:03;;;;;;;;;;;;;;;18.65;37.92;100573.91;7251730;19;152933;-53
2022/12/09 04:22:31;;;;;;;;;;;;;;;18.67;37.87;100573.59;7247973;19;156611;-52
2022/12/09 04:24:57;;;;;;;;;;;;;;;18.63;37.69;100573.38;7255312;19;153567;-52
2022/12/09 04:27:24;;;;;;;;;;;;;;;18.62;37.79;100571.69;7252349;19;153155;-53
2022/12/09 04:29:51;;;;;;;;;;;;;;;18.61;37.78;100577.63;7252293;19;153650;-52
2022/12/09 04:32:21;;;;;;;;;;;;;;;18.56;37.66;100581.34;7249475;19;153751;-52
2022/12/09 04:34:48;;;;;;;;;;;;;;;18.55;37.80;100584.41;7251369;19;152928;-53
2022/12/09 04:37:15;;;;;;;;;;;;;;;18.55;38.07;100579.66;7253919;19;153566;-52
2022/12/09 04:39:42;;;;;;;;;;;;;;;18.49;38.07;100578.03;7250721;19;153509;-53
2022/12/09 04:42:08;;;;;;;;;;;;;;;18.47;38.34;100582.28;7250137;19;155132;-52
2022/12/09 04:44:35;;;;;;;;;;;;;;;18.46;38.27;100566.63;7251351;19;155865;-51
2022/12/09 04:47:03;;;;;;;;;;;;;;;18.46;38.08;100566.63;7251063;19;154307;-52
2022/12/09 04:49:30;;;;;;;;;;;;;;;18.44;38.16;100571.72;7247866;19;154042;-53
2022/12/09 04:51:57;;;;;;;;;;;;;;;18.44;38.29;100568.91;7246195;19;152225;-52
2022/12/09 04:54:24;;;;;;;;;;;;;;;18.40;38.07;100556.66;7250070;19;153584;-52
2022/12/09 04:56:50;;;;;;;;;;;;;;;18.36;38.16;100567.63;7248525;19;154630;-52
2022/12/09 04:59:17;;;;;;;;;;;;;;;18.29;38.46;100567.19;7259954;19;154363;-52
2022/12/09 05:01:45;;;;;;;;;;;;;;;18.27;38.67;100563.00;7249625;19;153163;-52
2022/12/09 05:04:12;;;;;;;;;;;;;;;18.25;38.27;100559.69;7251135;19;153709;-53
2022/12/09 05:06:39;;;;;;;;;;;;;;;18.22;38.49;100567.53;7247481;19;153190;-53
2022/12/09 05:09:09;;;;;;;;;;;;;;;18.17;38.35;100564.81;7251934;19;153468;-52
2022/12/09 05:11:36;;;;;;;;;;;;;;;18.17;38.66;100566.78;7247739;19;154053;-53
2022/12/09 05:14:03;;;;;;;;;;;;;;;18.15;38.45;100564.31;7249487;19;153460;-52
2022/12/09 05:16:30;;;;;;;;;;;;;;;18.14;38.44;100564.59;7250512;19;155306;-53
2022/12/09 05:18:58;;;;;;;;;;;;;;;18.11;38.50;100571.63;7249782;19;154217;-52
2022/12/09 05:21:25;;;;;;;;;;;;;;;18.13;38.62;100568.53;7254174;19;154291;-52
2022/12/09 05:23:51;;;;;;;;;;;;;;;18.16;38.45;100563.19;7249511;19;154323;-52
2022/12/09 05:26:19;;;;;;;;;;;;;;;18.20;39.08;100555.84;7249478;19;154468;-52
2022/12/09 05:28:47;;;;;;;;;;;;;;;18.24;39.23;100558.88;7256210;19;153959;-52
2022/12/09 05:31:16;;;;;;;;;;;;;;;18.25;39.66;100551.31;7247382;19;152928;-52
2022/12/09 05:33:44;;;;;;;;;;;;;;;18.26;39.79;100552.97;7249039;19;153537;-52
2022/12/09 05:36:12;;;;;;;;;;;;;;;18.26;39.54;100545.38;7246733;19;154274;-52
2022/12/09 05:38:39;;;;;;;;;;;;;;;18.35;39.96;100551.16;7249338;19;154345;-52
2022/12/09 05:41:06;;;;;;;;;;;;;;;18.34;39.99;100538.31;7257833;19;152196;-52
2022/12/09 05:43:33;;;;;;;;;;;;;;;18.36;40.25;100536.00;7249343;19;154076;-53
2022/12/09 05:46:00;;;;;;;;;;;;;;;18.38;40.13;100540.19;7249326;19;152315;-53
2022/12/09 05:48:28;;;;;;;;;;;;;;;18.41;40.08;100539.56;7252910;19;154295;-52
2022/12/09 05:50:58;;;;;;;;;;;;;;;18.46;40.07;100539.50;7246321;19;156028;-52
2022/12/09 05:53:26;;;;;;;;;;;;;;;18.50;40.22;100537.75;7248772;19;154434;-52
2022/12/09 05:55:53;;;;;;;;;;;;;;;18.54;40.22;100544.41;7249090;19;154229;-53
2022/12/09 05:58:20;;;;;;;;;;;;;;;18.59;40.21;100541.53;7250801;19;153766;-52
2022/12/09 06:00:47;;;;;;;;;;;;;;;18.63;40.15;100528.59;7248769;19;152816;-52
2022/12/09 06:03:14;;;;;;;;;;;;;;;18.69;40.18;100536.91;7255959;19;154493;-52
2022/12/09 06:05:41;;;;;;;;;;;;;;;18.73;40.04;100533.19;7250941;19;153842;-52
2022/12/09 06:08:08;;;;;;;;;;;;;;;18.78;39.72;100537.88;7251723;19;154133;-52
2022/12/09 06:10:39;;;;;;;;;;;;;;;18.82;39.63;100539.75;7248739;19;154149;-52
2022/12/09 06:13:06;;;;;;;;;;;;;;;18.87;40.20;100545.25;7248609;19;154095;-52
2022/12/09 06:15:34;;;;;;;;;;;;;;;18.91;39.77;100545.47;7243902;19;153345;-52
2022/12/09 06:18:01;;;;;;;;;;;;;;;18.94;39.88;100554.06;7248306;19;154151;-52
2022/12/09 06:20:29;;;;;;;;;;;;;;;19.00;39.67;100554.81;7248269;19;153525;-52
2022/12/09 06:22:56;;;;;;;;;;;;;;;19.04;39.76;100553.91;7243868;19;153914;-52
2022/12/09 06:25:23;;;;;;;;;;;;;;;19.09;39.41;100552.97;7252690;19;154292;-53
2022/12/09 06:27:52;;;;;;;;;;;;;;;19.13;39.39;100558.78;7246428;19;152138;-52
2022/12/09 06:30:19;;;;;;;;;;;;;;;19.17;39.55;100566.25;7248381;19;155017;-53
2022/12/09 06:32:47;;;;;;;;;;;;;;;19.21;39.57;100561.72;7243391;19;152844;-52
2022/12/09 06:35:14;;;;;;;;;;;;;;;19.26;39.24;100560.81;7248288;19;153791;-52
2022/12/09 06:37:42;;;;;;;;;;;;;;;19.30;39.87;100573.88;7240129;19;153274;-50
2022/12/09 06:40:09;;;;;;;;;;;;;;;19.34;39.46;100566.50;7247027;19;153497;-52
2022/12/09 06:42:36;;;;;;;;;;;;;;;19.39;39.69;100574.00;7245313;19;155863;-51
2022/12/09 06:45:03;;;;;;;;;;;;;;;19.42;39.32;100568.59;7247424;19;154477;-51
2022/12/09 06:47:31;;;;;;;;;;;;;;;19.46;39.52;100568.81;7253437;19;152166;-52
2022/12/09 06:50:00;;;;;;;;;;;;;;;19.51;39.60;100568.72;7248502;19;153930;-52
2022/12/09 06:52:33;;;;;;;;;;;;;;;19.54;39.45;100571.72;7243823;19;153115;-52
2022/12/09 06:55:00;;;;;;;;;;;;;;;19.58;39.60;100565.53;7244939;19;153819;-52
2022/12/09 06:57:27;;;;;;;;;;;;;;;19.61;39.18;100554.50;7244880;19;155835;-52
2022/12/09 06:59:55;;;;;;;;;;;;;;;19.66;39.36;100565.63;7248429;19;152484;-51
2022/12/09 07:02:22;;;;;;;;;;;;;;;19.69;39.43;100562.19;7245099;19;154408;-51
2022/12/09 07:04:54;;;;;;;;;;;;;;;19.73;38.94;100556.78;7247446;19;153693;-52
2022/12/09 07:07:25;;;;;;;;;;;;;;;19.76;38.97;100565.38;7245490;19;152009;-52
2022/12/09 07:09:52;;;;;;;;;;;;;;;19.79;38.86;100559.19;7253967;19;153455;-52
2022/12/09 07:12:23;;;;;;;;;;;;;;;19.83;38.90;100554.59;7244067;19;153723;-51
2022/12/09 07:14:50;;;;;;;;;;;;;;;19.87;38.74;100554.78;7245967;19;153594;-51
2022/12/09 07:17:18;;;;;;;;;;;;;;;19.91;39.12;100558.63;7246378;19;154326;-52
2022/12/09 07:19:46;;;;;;;;;;;;;;;19.94;39.20;100555.22;7247813;19;152180;-52
2022/12/09 07:22:17;;;;;;;;;;;;;;;20.00;39.21;100565.16;7241054;19;154697;-53
2022/12/09 07:24:44;;;;;;;;;;;;;;;20.05;39.00;100569.81;7244965;19;153763;-53
2022/12/09 07:27:13;;;;;;;;;;;;;;;20.07;39.07;100567.53;7244384;19;154807;-52
2022/12/09 07:29:45;;;;;;;;;;;;;;;20.10;38.48;100580.94;7246758;19;153480;-52
2022/12/09 07:32:14;;;;;;;;;;;;;;;20.12;38.67;100576.69;7250653;19;153341;-51
2022/12/09 07:34:51;;;;;;;;;;;;;;;20.14;38.31;100579.16;7245789;19;153439;-52
2022/12/09 07:37:18;;;;;;;;;;;;;;;20.17;38.19;100581.34;7241993;19;153920;-52
2022/12/09 07:39:44;;;;;;;;;;;;;;;20.22;37.56;100576.44;7246435;19;154128;-53
2022/12/09 07:42:11;;;;;;;;;;;;;;;20.23;38.03;100566.03;7243477;19;153442;-53
2022/12/09 07:44:38;;;;;;;;;;;;;;;20.22;37.36;100559.59;7247791;19;154587;-53
2022/12/09 07:47:05;;;;;;;;;;;;;;;20.23;37.09;100560.44;7248422;19;153200;-51
2022/12/09 07:49:32;;;;;;;;;;;;;;;20.23;36.88;100561.25;7248607;19;154334;-52
2022/12/09 07:52:01;;;;;;;;;;;;;;;20.24;36.61;100564.91;7245703;19;155049;-52
2022/12/09 07:54:27;;;;;;;;;;;;;;;20.13;33.92;100566.25;7247032;19;153698;-52
2022/12/09 07:56:54;;;;;;;;;;;;;;;20.14;34.32;100574.38;7246229;19;154891;-52
2022/12/09 07:59:22;;;;;;;;;;;;;;;20.14;35.21;100570.75;7246337;19;154084;-52
2022/12/09 08:01:48;;;;;;;;;;;;;;;20.15;35.24;100573.25;7247043;19;154385;-52
2022/12/09 08:04:15;;;;;;;;;;;;;;;20.16;35.14;100566.50;7241596;19;153593;-52
2022/12/09 08:06:42;;;;;;;;;;;;;;;20.19;35.55;100562.22;7243680;19;153705;-52
2022/12/09 08:09:11;;;;;;;;;;;;;;;20.20;35.27;100549.84;7244523;19;153434;-52
2022/12/09 08:11:38;;;;;;;;;;;;;;;20.23;35.75;100552.00;7243209;19;155895;-51
2022/12/09 08:14:07;;;;;;;;;;;;;;;20.25;35.82;100563.75;7252163;19;152674;-52
2022/12/09 08:16:38;;;;;;;;;;;;;;;20.27;35.45;100555.84;7244684;19;153653;-52
2022/12/09 08:19:06;;;;;;;;;;;;;;;20.29;35.59;100562.81;7246087;19;152502;-51
2022/12/09 08:21:33;;;;;;;;;;;;;;;20.32;35.66;100567.81;7245089;19;156215;-51
2022/12/09 08:24:01;;;;;;;;;;;;;;;20.34;35.81;100578.72;7245850;19;155171;-52
2022/12/09 08:26:30;;;;;;;;;;;;;;;20.36;35.93;100577.25;7246727;19;153269;-52
2022/12/09 08:28:58;;;;;;;;;;;;;;;20.41;35.29;100571.53;7247307;19;154100;-52
2022/12/09 08:31:26;;;;;;;;;;;;;;;20.46;34.72;100576.19;7239993;19;154027;-51
2022/12/09 08:33:53;;;;;;;;;;;;;;;20.44;35.27;100581.31;7243068;19;152664;-52
2022/12/09 08:36:22;;;;;;;;;;;;;;;20.45;35.00;100579.31;7249176;19;154042;-53
2022/12/09 08:38:49;;;;;;;;;;;;;;;20.48;35.51;100578.69;7246100;19;153883;-51
2022/12/09 08:41:20;;;;;;;;;;;;;;;20.51;35.48;100583.66;7252950;19;154330;-51
2022/12/09 08:43:47;;;;;;;;;;;;;;;20.50;35.43;100582.81;7250812;19;154848;-51
2022/12/09 08:46:14;;;;;;;;;;;;;;;20.50;35.46;100576.38;7251328;19;153213;-52
2022/12/09 08:48:41;;;;;;;;;;;;;;;20.50;35.44;100577.22;7253560;19;154120;-52
2022/12/09 08:51:10;;;;;;;;;;;;;;;20.49;35.36;100583.97;7248032;19;153897;-51
2022/12/09 08:53:37;;;;;;;;;;;;;;;20.51;35.29;100583.66;7253817;19;154358;-51
2022/12/09 08:56:12;;;;;;;;;;;;;;;20.51;34.90;100584.50;7251254;19;154688;-52
2022/12/09 08:58:39;;;;;;;;;;;;;;;20.52;34.69;100583.34;7258467;19;154961;-52
2022/12/09 09:01:07;;;;;;;;;;;;;;;20.53;34.82;100584.19;7251702;19;152714;-52
2022/12/09 09:03:34;;;;;;;;;;;;;;;20.52;34.63;100577.75;7249542;19;152809;-51
2022/12/09 09:06:03;;;;;;;;;;;;;;;20.54;34.87;100588.63;7248428;19;152779;-51
2022/12/09 09:08:37;;;;;;;;;;;;;;;20.54;34.53;100583.00;7252289;19;153366;-52
2022/12/09 09:11:11;;;;;;;;;;;;;;;20.55;34.75;100591.13;7250847;19;153528;-51
2022/12/09 09:13:40;;;;;;;;;;;;;;;20.56;34.78;100594.78;7250181;19;155082;-52
2022/12/09 09:16:08;;;;;;;;;;;;;;;20.57;34.74;100586.03;7247492;19;154349;-52
2022/12/09 09:18:35;;;;;;;;;;;;;;;20.57;34.70;100588.84;7250536;19;153312;-52
2022/12/09 09:21:04;;;;;;;;;;;;;;;20.58;34.54;100592.50;7256344;19;154081;-51
2022/12/09 09:23:31;;;;;;;;;;;;;;;20.59;34.39;100591.31;7249867;19;154721;-51
2022/12/09 09:25:58;;;;;;;;;;;;;;;20.58;34.27;100586.88;7256316;19;153392;-51
2022/12/09 09:28:25;;;;;;;;;;;;;;;20.61;34.45;100587.06;7251838;19;154738;-51
2022/12/09 09:31:00;;;;;;;;;;;;;;;20.60;34.47;100582.59;7248787;19;154707;-52
2022/12/09 09:33:27;;;;;;;;;;;;;;;20.60;34.35;100582.59;7251619;19;154069;-51
2022/12/09 09:36:02;;;;;;;;;;;;;;;20.62;34.59;100593.50;7249105;19;153776;-52
2022/12/09 09:38:35;;;;;;;;;;;;;;;20.63;34.56;100589.53;7249210;19;155343;-51
2022/12/09 09:41:15;;;;;;;;;;;;;;;20.63;34.30;100590.38;7259546;19;152733;-52
2022/12/09 09:43:43;;;;;;;;;;;;;;;20.65;34.30;100598.47;7248922;19;154360;-51
2022/12/09 09:46:15;;;;;;;;;;;;;;;20.66;34.18;100592.56;7252266;19;154004;-51
2022/12/09 09:48:43;;;;;;;;;;;;;;;20.65;34.32;100590.88;7252727;19;154878;-51
2022/12/09 09:51:18;;;;;;;;;;;;;;;20.67;34.30;100591.38;7246232;19;153701;-51
2022/12/09 09:53:48;;;;;;;;;;;;;;;20.67;33.79;100587.78;7251373;19;152517;-51
2022/12/09 09:56:35;;;;;;;;;;;;;;;20.68;33.75;100589.41;7248651;19;153332;-51
2022/12/09 09:59:15;;;;;;;;;;;;;;;20.68;34.04;100601.47;7249537;19;154407;-51
2022/12/09 10:01:44;;;;;;;;;;;;;;;20.67;33.84;100599.00;7250440;19;153285;-51
2022/12/09 10:04:12;;;;;;;;;;;;;;;20.66;33.52;100597.34;7258758;19;154231;-52
2022/12/09 10:06:59;;;;;;;;;;;;;;;20.65;33.89;100604.94;7251796;19;152782;-52
2022/12/09 10:09:42;;;;;;;;;;;;;;;20.65;33.47;100606.91;7254229;19;154376;-52
2022/12/09 10:12:21;;;;;;;;;;;;;;;20.64;33.79;100606.06;7252899;19;153343;-51
2022/12/09 10:14:52;;;;;;;;;;;;;;;20.64;33.70;100608.03;7250043;19;153840;-52
2022/12/09 10:17:25;;;;;;;;;;;;;;;20.62;33.80;100610.34;7252017;19;154355;-52
2022/12/09 10:19:55;;;;;;;;;;;;;;;20.59;33.66;100620.22;7251048;19;153754;-52
2022/12/09 10:22:28;;;;;;;;;;;;;;;20.57;33.98;100616.91;7250072;19;152860;-52
2022/12/09 10:24:57;;;;;;;;;;;;;;;20.55;34.23;100613.59;7251898;19;154676;-52
2022/12/09 10:27:29;;;;;;;;;;;;;;;20.55;34.01;100616.38;7258896;19;155192;-52
2022/12/09 10:30:01;;;;;;;;;;;;;;;20.53;33.91;100599.06;7252783;19;154935;-52
2022/12/09 10:32:30;;;;;;;;;;;;;;;20.54;33.82;100602.66;7250165;19;154365;-52
2022/12/09 10:34:57;;;;;;;;;;;;;;;20.52;34.08;100596.56;7250110;19;153229;-52
2022/12/09 10:37:34;;;;;;;;;;;;;;;20.52;34.21;100597.38;7245562;19;153946;-52
2022/12/09 10:40:12;;;;;;;;;;;;;;;20.52;34.34;100596.56;7252082;19;155228;-52
2022/12/09 10:45:31;;;;;;;;;;;;;;;20.49;34.32;100594.38;7251688;19;154491;-51
2022/12/09 10:48:27;;;;;;;;;;;;;;;20.49;34.36;100594.38;7247644;19;156527;-52
2022/12/09 10:51:01;;;;;;;;;;;;;;;20.47;34.03;100588.25;7253533;19;155018;-50
2022/12/09 10:53:29;;;;;;;;;;;;;;;20.46;33.98;100587.41;7246875;19;153443;-52
2022/12/09 10:55:58;;;;;;;;;;;;;;;20.42;33.92;100578.81;7249411;19;153786;-53
2022/12/09 10:58:27;;;;;;;;;;;;;;;20.42;34.12;100586.41;7248742;19;151908;-52
2022/12/09 11:00:57;;;;;;;;;;;;;;;20.40;34.16;100583.06;7248075;19;154093;-51
2022/12/09 11:03:26;;;;;;;;;;;;;;;20.37;33.86;100578.94;7247471;19;153077;-52
2022/12/09 11:06:01;;;;;;;;;;;;;;;20.34;34.24;100585.19;7247060;19;153908;-52
2022/12/09 11:08:29;;;;;;;;;;;;;;;20.30;33.97;100586.13;7246376;19;155474;-52
2022/12/09 11:10:56;;;;;;;;;;;;;;;20.26;34.21;100574.66;7246457;19;152317;-52
2022/12/09 11:13:27;;;;;;;;;;;;;;;20.24;33.96;100578.94;7251255;19;154457;-52
2022/12/09 11:15:58;;;;;;;;;;;;;;;20.21;34.35;100582.38;7248583;19;153231;-52
2022/12/09 11:18:28;;;;;;;;;;;;;;;20.16;34.39;100582.50;7247402;19;154237;-51
2022/12/09 11:20:56;;;;;;;;;;;;;;;20.12;34.16;100582.28;7245012;19;153798;-53
2022/12/09 11:23:24;;;;;;;;;;;;;;;20.11;34.08;100582.59;7247560;19;153329;-52
2022/12/09 11:25:57;;;;;;;;;;;;;;;20.08;34.33;100570.00;7248228;19;153636;-52
2022/12/09 11:28:28;;;;;;;;;;;;;;;20.03;34.59;100566.53;7246815;19;153853;-51
2022/12/09 11:31:16;;;;;;;;;;;;;;;19.97;34.33;100571.41;7248117;19;152099;-52
2022/12/09 11:33:58;;;;;;;;;;;;;;;19.92;34.42;100572.34;7249832;19;154370;-51
2022/12/09 11:36:37;;;;;;;;;;;;;;;19.86;34.47;100567.97;7252781;19;153627;-51
2022/12/09 11:39:18;;;;;;;;;;;;;;;19.81;34.70;100556.88;7249596;19;154185;-52
2022/12/09 11:44:48;;;;;;;;;;;;;;;19.81;34.45;100559.69;7244374;19;154104;-52
2022/12/09 11:47:29;;;;;;;;;;;;;;;19.75;34.80;100548.91;7245650;19;153932;-52
2022/12/09 11:50:15;;;;;;;;;;;;;;;19.70;34.67;100555.44;7193956;19;155809;-51
2022/12/09 11:53:12;;;;;;;;;;;;;;;19.65;35.08;100549.94;7238463;19;153685;-51
2022/12/09 11:55:48;;;;;;;;;;;;;;;19.60;34.89;100547.25;7244192;19;155052;-52
2022/12/09 11:58:18;;;;;;;;;;;;;;;19.54;34.72;100551.28;7243964;19;153235;-52
2022/12/09 12:00:50;;;;;;;;;;;;;;;19.50;35.25;100551.06;7242806;19;153816;-53
2022/12/09 12:03:16;;;;;;;;;;;;;;;19.47;35.20;100557.31;7246767;19;154139;-52
2022/12/09 12:05:44;;;;;;;;;;;;;;;19.43;34.94;100552.63;7242734;19;153033;-53
2022/12/09 12:08:17;;;;;;;;;;;;;;;19.38;35.15;100556.34;7243268;19;153258;-52
2022/12/09 12:10:56;;;;;;;;;;;;;;;19.35;34.93;100547.75;7243541;19;153474;-52
2022/12/09 12:13:41;;;;;;;;;;;;;;;19.32;35.34;100551.13;7244094;19;154817;-52
2022/12/09 12:16:37;;;;;;;;;;;;;;;19.24;35.38;100541.50;7254018;19;153993;-52
2022/12/09 12:19:12;;;;;;;;;;;;;;;19.20;35.08;100543.25;7247947;19;153099;-52
2022/12/09 12:21:42;;;;;;;;;;;;;;;19.16;35.11;100532.97;7252513;19;153712;-52
2022/12/09 12:24:19;;;;;;;;;;;;;;;19.11;35.16;100533.91;7247482;19;155472;-52
2022/12/09 12:27:04;;;;;;;;;;;;;;;19.07;35.47;100536.50;7247644;19;152733;-52
2022/12/09 12:30:00;;;;;;;;;;;;;;;19.03;35.64;100527.03;7247765;19;154052;-52
2022/12/09 12:32:36;;;;;;;;;;;;;;;19.01;35.43;100529.31;7247317;19;155884;-52
2022/12/09 12:35:22;;;;;;;;;;;;;;;18.98;35.33;100521.56;7249359;19;153849;-52
2022/12/09 12:37:49;;;;;;;;;;;;;;;18.91;35.38;100517.47;7242970;19;154105;-52
2022/12/09 12:40:18;;;;;;;;;;;;;;;18.89;35.74;100517.81;7246240;19;152776;-52
2022/12/09 12:48:43;;;;;;;;;;;;;;;18.81;35.47;100529.69;7248788;19;153045;-51
2022/12/09 12:51:10;;;;;;;;;;;;;;;18.79;35.51;100531.97;7243099;19;155199;-53
2022/12/09 12:53:45;;;;;;;;;;;;;;;18.75;35.82;100525.34;7241674;19;155365;-52